sensor_id;sensor_type;location;lat;lon;timestamp;temperature;humidity
72202;SHT30;60105;54.956;73.412;2023-08-31T00:00:43;11.51;85.14
72202;SHT30;60105;54.956;73.412;2023-08-31T00:03:45;11.49;84.69
72202;SHT30;60105;54.956;73.412;2023-08-31T00:07:23;11.44;85.03
72202;SHT30;60105;54.956;73.412;2023-08-31T00:10:25;11.44;85.34
72202;SHT30;60105;54.956;73.412;2023-08-31T00:13:27;11.44;85.18
72202;SHT30;60105;54.956;73.412;2023-08-31T00:16:29;11.49;85.06
72202;SHT30;60105;54.956;73.412;2023-08-31T00:19:30;11.46;85.41
72202;SHT30;60105;54.956;73.412;2023-08-31T00:22:32;11.49;84.89
72202;SHT30;60105;54.956;73.412;2023-08-31T00:25:33;11.47;84.06
72202;SHT30;60105;54.956;73.412;2023-08-31T00:28:35;11.47;84.45
72202;SHT30;60105;54.956;73.412;2023-08-31T00:31:37;11.49;84.61
72202;SHT30;60105;54.956;73.412;2023-08-31T00:34:38;11.46;83.85
72202;SHT30;60105;54.956;73.412;2023-08-31T00:37:39;11.47;84.23
72202;SHT30;60105;54.956;73.412;2023-08-31T00:40:41;11.47;84.17
72202;SHT30;60105;54.956;73.412;2023-08-31T00:43:46;11.41;83.06
72202;SHT30;60105;54.956;73.412;2023-08-31T00:47:23;11.46;84.34
72202;SHT30;60105;54.956;73.412;2023-08-31T00:50:25;11.46;84.19
72202;SHT30;60105;54.956;73.412;2023-08-31T00:53:27;11.54;83.75
72202;SHT30;60105;54.956;73.412;2023-08-31T00:56:28;11.56;83.09
72202;SHT30;60105;54.956;73.412;2023-08-31T00:59:30;11.51;83.49
72202;SHT30;60105;54.956;73.412;2023-08-31T01:03:01;11.57;82.30
72202;SHT30;60105;54.956;73.412;2023-08-31T01:06:14;11.59;83.66
72202;SHT30;60105;54.956;73.412;2023-08-31T01:09:48;11.60;83.69
72202;SHT30;60105;54.956;73.412;2023-08-31T01:13:03;11.67;82.68
72202;SHT30;60105;54.956;73.412;2023-08-31T01:16:06;11.68;83.33
72202;SHT30;60105;54.956;73.412;2023-08-31T01:23:07;11.70;82.21
72202;SHT30;60105;54.956;73.412;2023-08-31T01:26:11;11.71;82.55
72202;SHT30;60105;54.956;73.412;2023-08-31T01:29:12;11.73;83.07
72202;SHT30;60105;54.956;73.412;2023-08-31T01:32:16;11.78;81.27
72202;SHT30;60105;54.956;73.412;2023-08-31T01:35:18;11.85;81.10
72202;SHT30;60105;54.956;73.412;2023-08-31T01:38:27;11.90;80.78
72202;SHT30;60105;54.956;73.412;2023-08-31T01:41:30;11.91;81.62
72202;SHT30;60105;54.956;73.412;2023-08-31T01:44:36;11.94;80.40
72202;SHT30;60105;54.956;73.412;2023-08-31T01:47:38;11.99;80.34
72202;SHT30;60105;54.956;73.412;2023-08-31T01:50:39;12.02;81.15
72202;SHT30;60105;54.956;73.412;2023-08-31T01:53:41;12.02;80.28
72202;SHT30;60105;54.956;73.412;2023-08-31T01:57:23;12.11;79.74
72202;SHT30;60105;54.956;73.412;2023-08-31T02:00:38;12.18;80.20
72202;SHT30;60105;54.956;73.412;2023-08-31T02:03:39;12.24;78.96
72202;SHT30;60105;54.956;73.412;2023-08-31T02:07:23;12.36;79.11
72202;SHT30;60105;54.956;73.412;2023-08-31T02:10:25;12.46;80.14
72202;SHT30;60105;54.956;73.412;2023-08-31T02:13:27;12.49;79.12
72202;SHT30;60105;54.956;73.412;2023-08-31T02:16:29;12.55;78.66
72202;SHT30;60105;54.956;73.412;2023-08-31T02:19:30;12.59;79.04
72202;SHT30;60105;54.956;73.412;2023-08-31T02:22:34;12.66;79.01
72202;SHT30;60105;54.956;73.412;2023-08-31T02:25:36;12.76;78.92
72202;SHT30;60105;54.956;73.412;2023-08-31T02:28:37;12.83;78.72
72202;SHT30;60105;54.956;73.412;2023-08-31T02:31:39;12.88;78.29
72202;SHT30;60105;54.956;73.412;2023-08-31T02:34:40;12.96;77.73
72202;SHT30;60105;54.956;73.412;2023-08-31T02:37:42;12.98;78.28
72202;SHT30;60105;54.956;73.412;2023-08-31T02:40:46;13.08;77.37
72202;SHT30;60105;54.956;73.412;2023-08-31T02:43:50;13.14;78.25
72202;SHT30;60105;54.956;73.412;2023-08-31T02:47:23;13.18;77.58
72202;SHT30;60105;54.956;73.412;2023-08-31T02:50:26;13.19;78.24
72202;SHT30;60105;54.956;73.412;2023-08-31T02:53:31;13.27;77.54
72202;SHT30;60105;54.956;73.412;2023-08-31T02:56:32;13.38;77.18
72202;SHT30;60105;54.956;73.412;2023-08-31T02:59:33;13.36;77.42
72202;SHT30;60105;54.956;73.412;2023-08-31T03:02:37;13.44;77.48
72202;SHT30;60105;54.956;73.412;2023-08-31T03:05:38;13.55;77.25
72202;SHT30;60105;54.956;73.412;2023-08-31T03:08:39;13.62;76.57
72202;SHT30;60105;54.956;73.412;2023-08-31T03:12:23;13.72;76.60
72202;SHT30;60105;54.956;73.412;2023-08-31T03:15:25;13.85;76.50
72202;SHT30;60105;54.956;73.412;2023-08-31T03:18:26;13.96;76.48
72202;SHT30;60105;54.956;73.412;2023-08-31T03:21:28;14.04;76.13
72202;SHT30;60105;54.956;73.412;2023-08-31T03:24:32;14.14;75.70
72202;SHT30;60105;54.956;73.412;2023-08-31T03:27:33;14.21;75.30
72202;SHT30;60105;54.956;73.412;2023-08-31T03:30:36;14.33;75.15
72202;SHT30;60105;54.956;73.412;2023-08-31T03:33:38;14.45;75.37
72202;SHT30;60105;54.956;73.412;2023-08-31T03:37:23;14.57;74.71
72202;SHT30;60105;54.956;73.412;2023-08-31T03:40:24;14.69;74.69
72202;SHT30;60105;54.956;73.412;2023-08-31T03:43:26;14.72;73.84
72202;SHT30;60105;54.956;73.412;2023-08-31T03:46:27;14.85;73.78
72202;SHT30;60105;54.956;73.412;2023-08-31T03:49:28;14.93;73.88
72202;SHT30;60105;54.956;73.412;2023-08-31T03:52:30;14.99;74.04
72202;SHT30;60105;54.956;73.412;2023-08-31T03:55:32;15.09;73.46
72202;SHT30;60105;54.956;73.412;2023-08-31T03:58:34;15.22;73.30
72202;SHT30;60105;54.956;73.412;2023-08-31T04:01:35;15.30;73.32
72202;SHT30;60105;54.956;73.412;2023-08-31T04:04:37;15.41;72.54
72202;SHT30;60105;54.956;73.412;2023-08-31T04:07:38;15.49;72.54
72202;SHT30;60105;54.956;73.412;2023-08-31T04:10:39;15.61;71.90
72202;SHT30;60105;54.956;73.412;2023-08-31T04:13:40;15.68;70.73
72202;SHT30;60105;54.956;73.412;2023-08-31T04:17:23;15.81;71.38
72202;SHT30;60105;54.956;73.412;2023-08-31T04:20:25;15.91;70.84
72202;SHT30;60105;54.956;73.412;2023-08-31T04:23:26;16.01;70.96
72202;SHT30;60105;54.956;73.412;2023-08-31T04:26:27;16.08;70.65
72202;SHT30;60105;54.956;73.412;2023-08-31T04:29:29;16.21;70.12
72202;SHT30;60105;54.956;73.412;2023-08-31T04:32:30;16.26;70.07
72202;SHT30;60105;54.956;73.412;2023-08-31T04:35:31;16.36;69.96
72202;SHT30;60105;54.956;73.412;2023-08-31T04:38:34;16.40;69.59
72202;SHT30;60105;54.956;73.412;2023-08-31T04:41:35;16.46;69.20
72202;SHT30;60105;54.956;73.412;2023-08-31T04:44:36;16.53;67.75
72202;SHT30;60105;54.956;73.412;2023-08-31T04:47:37;16.63;68.56
72202;SHT30;60105;54.956;73.412;2023-08-31T04:50:40;16.67;65.49
72202;SHT30;60105;54.956;73.412;2023-08-31T04:53:41;16.69;63.56
72202;SHT30;60105;54.956;73.412;2023-08-31T04:57:23;16.80;62.80
72202;SHT30;60105;54.956;73.412;2023-08-31T05:00:25;16.84;63.12
72202;SHT30;60105;54.956;73.412;2023-08-31T05:03:27;16.97;61.82
72202;SHT30;60105;54.956;73.412;2023-08-31T05:06:28;17.01;61.76
72202;SHT30;60105;54.956;73.412;2023-08-31T05:09:29;17.07;62.29
72202;SHT30;60105;54.956;73.412;2023-08-31T05:12:35;17.17;62.86
72202;SHT30;60105;54.956;73.412;2023-08-31T05:15:36;17.19;60.78
72202;SHT30;60105;54.956;73.412;2023-08-31T05:18:54;17.25;61.95
72202;SHT30;60105;54.956;73.412;2023-08-31T05:22:23;17.34;62.43
72202;SHT30;60105;54.956;73.412;2023-08-31T05:25:25;17.45;61.18
72202;SHT30;60105;54.956;73.412;2023-08-31T05:28:27;17.50;62.47
72202;SHT30;60105;54.956;73.412;2023-08-31T05:31:28;17.59;60.14
72202;SHT30;60105;54.956;73.412;2023-08-31T05:34:30;17.68;59.44
72202;SHT30;60105;54.956;73.412;2023-08-31T05:37:34;17.79;60.18
72202;SHT30;60105;54.956;73.412;2023-08-31T05:40:36;17.85;57.93
72202;SHT30;60105;54.956;73.412;2023-08-31T05:43:37;17.90;56.69
72202;SHT30;60105;54.956;73.412;2023-08-31T05:47:23;17.82;57.55
72202;SHT30;60105;54.956;73.412;2023-08-31T05:50:24;17.93;57.67
72202;SHT30;60105;54.956;73.412;2023-08-31T05:53:26;17.97;57.46
72202;SHT30;60105;54.956;73.412;2023-08-31T05:56:27;18.01;58.56
72202;SHT30;60105;54.956;73.412;2023-08-31T05:59:29;18.07;58.22
72202;SHT30;60105;54.956;73.412;2023-08-31T06:02:30;18.10;56.83
72202;SHT30;60105;54.956;73.412;2023-08-31T06:05:32;18.04;56.80
72202;SHT30;60105;54.956;73.412;2023-08-31T06:08:33;18.11;58.09
72202;SHT30;60105;54.956;73.412;2023-08-31T06:11:34;18.18;58.28
72202;SHT30;60105;54.956;73.412;2023-08-31T06:14:36;18.21;56.69
72202;SHT30;60105;54.956;73.412;2023-08-31T06:17:37;18.40;57.03
72202;SHT30;60105;54.956;73.412;2023-08-31T06:20:38;18.58;57.42
72202;SHT30;60105;54.956;73.412;2023-08-31T06:23:39;18.76;56.60
72202;SHT30;60105;54.956;73.412;2023-08-31T06:27:23;18.99;57.04
72202;SHT30;60105;54.956;73.412;2023-08-31T06:30:24;19.10;54.51
72202;SHT30;60105;54.956;73.412;2023-08-31T06:33:26;19.30;53.79
72202;SHT30;60105;54.956;73.412;2023-08-31T06:36:27;19.40;54.84
72202;SHT30;60105;54.956;73.412;2023-08-31T06:39:28;19.47;53.21
72202;SHT30;60105;54.956;73.412;2023-08-31T06:42:30;19.51;54.08
72202;SHT30;60105;54.956;73.412;2023-08-31T06:45:31;19.49;52.67
72202;SHT30;60105;54.956;73.412;2023-08-31T06:48:32;19.43;52.71
72202;SHT30;60105;54.956;73.412;2023-08-31T06:51:34;19.57;52.93
72202;SHT30;60105;54.956;73.412;2023-08-31T06:54:35;19.61;53.73
72202;SHT30;60105;54.956;73.412;2023-08-31T06:57:36;19.64;53.92
72202;SHT30;60105;54.956;73.412;2023-08-31T07:00:38;19.63;53.69
72202;SHT30;60105;54.956;73.412;2023-08-31T07:03:39;19.65;53.92
72202;SHT30;60105;54.956;73.412;2023-08-31T07:07:23;19.74;53.20
72202;SHT30;60105;54.956;73.412;2023-08-31T07:10:24;19.78;52.67
72202;SHT30;60105;54.956;73.412;2023-08-31T07:13:26;19.81;52.79
72202;SHT30;60105;54.956;73.412;2023-08-31T07:16:27;19.74;54.41
72202;SHT30;60105;54.956;73.412;2023-08-31T07:19:28;19.60;55.14
72202;SHT30;60105;54.956;73.412;2023-08-31T07:22:29;19.50;55.48
72202;SHT30;60105;54.956;73.412;2023-08-31T07:25:30;19.53;55.64
72202;SHT30;60105;54.956;73.412;2023-08-31T07:28:32;19.53;56.34
72202;SHT30;60105;54.956;73.412;2023-08-31T07:31:34;19.78;55.61
72202;SHT30;60105;54.956;73.412;2023-08-31T07:34:36;19.88;56.24
72202;SHT30;60105;54.956;73.412;2023-08-31T07:37:38;19.99;55.36
72202;SHT30;60105;54.956;73.412;2023-08-31T07:40:39;20.05;53.39
72202;SHT30;60105;54.956;73.412;2023-08-31T07:43:40;19.99;54.31
72202;SHT30;60105;54.956;73.412;2023-08-31T07:47:23;20.12;55.75
72202;SHT30;60105;54.956;73.412;2023-08-31T07:50:24;20.30;53.78
72202;SHT30;60105;54.956;73.412;2023-08-31T07:53:25;20.33;54.38
72202;SHT30;60105;54.956;73.412;2023-08-31T07:56:27;20.37;54.10
72202;SHT30;60105;54.956;73.412;2023-08-31T07:59:28;20.42;53.38
72202;SHT30;60105;54.956;73.412;2023-08-31T08:02:31;20.36;55.24
72202;SHT30;60105;54.956;73.412;2023-08-31T08:05:32;20.40;54.07
72202;SHT30;60105;54.956;73.412;2023-08-31T08:08:33;20.42;54.10
72202;SHT30;60105;54.956;73.412;2023-08-31T08:11:35;20.26;54.42
72202;SHT30;60105;54.956;73.412;2023-08-31T08:14:36;20.25;55.45
72202;SHT30;60105;54.956;73.412;2023-08-31T08:17:38;20.23;52.69
72202;SHT30;60105;54.956;73.412;2023-08-31T08:20:39;20.22;52.24
72202;SHT30;60105;54.956;73.412;2023-08-31T08:23:40;20.21;53.43
72202;SHT30;60105;54.956;73.412;2023-08-31T08:27:23;20.12;51.73
72202;SHT30;60105;54.956;73.412;2023-08-31T08:30:25;20.05;52.85
72202;SHT30;60105;54.956;73.412;2023-08-31T08:33:26;20.06;52.97
72202;SHT30;60105;54.956;73.412;2023-08-31T08:36:28;20.09;53.04
72202;SHT30;60105;54.956;73.412;2023-08-31T08:39:30;20.06;54.55
72202;SHT30;60105;54.956;73.412;2023-08-31T08:42:32;20.02;53.03
72202;SHT30;60105;54.956;73.412;2023-08-31T08:45:38;19.96;54.06
72202;SHT30;60105;54.956;73.412;2023-08-31T08:48:41;19.84;55.25
72202;SHT30;60105;54.956;73.412;2023-08-31T08:52:23;19.75;54.61
72202;SHT30;60105;54.956;73.412;2023-08-31T08:55:25;19.61;54.93
72202;SHT30;60105;54.956;73.412;2023-08-31T08:58:26;19.46;54.98
72202;SHT30;60105;54.956;73.412;2023-08-31T09:01:28;19.30;54.27
72202;SHT30;60105;54.956;73.412;2023-08-31T09:04:30;19.20;54.36
72202;SHT30;60105;54.956;73.412;2023-08-31T09:07:34;19.07;54.94
72202;SHT30;60105;54.956;73.412;2023-08-31T09:10:42;19.03;56.67
72202;SHT30;60105;54.956;73.412;2023-08-31T09:13:48;19.10;56.17
72202;SHT30;60105;54.956;73.412;2023-08-31T09:17:24;19.13;55.96
72202;SHT30;60105;54.956;73.412;2023-08-31T09:20:28;19.09;55.82
72202;SHT30;60105;54.956;73.412;2023-08-31T09:23:29;19.05;56.72
72202;SHT30;60105;54.956;73.412;2023-08-31T09:26:38;19.05;55.34
72202;SHT30;60105;54.956;73.412;2023-08-31T09:29:45;19.06;56.10
72202;SHT30;60105;54.956;73.412;2023-08-31T09:32:52;19.05;55.75
72202;SHT30;60105;54.956;73.412;2023-08-31T09:35:56;18.98;55.98
72202;SHT30;60105;54.956;73.412;2023-08-31T09:38:58;18.91;55.72
72202;SHT30;60105;54.956;73.412;2023-08-31T09:42:26;18.84;57.26
72202;SHT30;60105;54.956;73.412;2023-08-31T09:45:37;18.84;58.15
72202;SHT30;60105;54.956;73.412;2023-08-31T09:48:40;18.86;57.94
72202;SHT30;60105;54.956;73.412;2023-08-31T09:52:24;18.99;56.96
72202;SHT30;60105;54.956;73.412;2023-08-31T09:55:27;19.05;57.58
72202;SHT30;60105;54.956;73.412;2023-08-31T09:58:29;19.09;57.68
72202;SHT30;60105;54.956;73.412;2023-08-31T10:01:32;19.14;57.15
72202;SHT30;60105;54.956;73.412;2023-08-31T10:04:34;19.16;56.80
72202;SHT30;60105;54.956;73.412;2023-08-31T10:07:38;19.20;56.55
72202;SHT30;60105;54.956;73.412;2023-08-31T10:10:40;19.28;57.99
72202;SHT30;60105;54.956;73.412;2023-08-31T10:13:42;19.31;56.55
72202;SHT30;60105;54.956;73.412;2023-08-31T10:17:25;19.26;56.53
72202;SHT30;60105;54.956;73.412;2023-08-31T10:20:26;19.31;55.78
72202;SHT30;60105;54.956;73.412;2023-08-31T10:23:35;19.35;56.74
72202;SHT30;60105;54.956;73.412;2023-08-31T10:26:36;19.37;56.82
72202;SHT30;60105;54.956;73.412;2023-08-31T10:29:38;19.38;57.66
72202;SHT30;60105;54.956;73.412;2023-08-31T10:32:39;19.33;57.83
72202;SHT30;60105;54.956;73.412;2023-08-31T10:35:51;19.26;56.93
72202;SHT30;60105;54.956;73.412;2023-08-31T10:42:23;19.14;58.42
72202;SHT30;60105;54.956;73.412;2023-08-31T10:45:24;19.30;58.29
72202;SHT30;60105;54.956;73.412;2023-08-31T10:48:26;19.40;57.99
72202;SHT30;60105;54.956;73.412;2023-08-31T10:51:32;19.53;57.13
72202;SHT30;60105;54.956;73.412;2023-08-31T10:54:34;19.68;57.05
72202;SHT30;60105;54.956;73.412;2023-08-31T10:57:35;19.70;57.73
72202;SHT30;60105;54.956;73.412;2023-08-31T11:00:52;19.54;57.90
72202;SHT30;60105;54.956;73.412;2023-08-31T11:03:57;19.51;57.32
72202;SHT30;60105;54.956;73.412;2023-08-31T11:07:24;19.53;58.07
72202;SHT30;60105;54.956;73.412;2023-08-31T11:10:26;19.54;57.89
72202;SHT30;60105;54.956;73.412;2023-08-31T11:13:30;19.55;56.33
72202;SHT30;60105;54.956;73.412;2023-08-31T11:16:32;19.63;57.42
72202;SHT30;60105;54.956;73.412;2023-08-31T11:19:35;19.61;56.43
72202;SHT30;60105;54.956;73.412;2023-08-31T11:22:45;19.67;55.29
72202;SHT30;60105;54.956;73.412;2023-08-31T11:25:47;19.91;54.49
72202;SHT30;60105;54.956;73.412;2023-08-31T11:28:49;20.01;53.69
72202;SHT30;60105;54.956;73.412;2023-08-31T11:31:52;20.30;53.62
72202;SHT30;60105;54.956;73.412;2023-08-31T11:34:53;20.60;52.75
72202;SHT30;60105;54.956;73.412;2023-08-31T11:37:56;20.63;53.15
72202;SHT30;60105;54.956;73.412;2023-08-31T11:40:58;20.46;53.48
72202;SHT30;60105;54.956;73.412;2023-08-31T11:44:00;20.28;55.01
72202;SHT30;60105;54.956;73.412;2023-08-31T11:47:23;20.28;54.37
72202;SHT30;60105;54.956;73.412;2023-08-31T11:50:26;20.40;54.38
72202;SHT30;60105;54.956;73.412;2023-08-31T11:53:27;20.36;53.00
72202;SHT30;60105;54.956;73.412;2023-08-31T11:56:44;20.15;52.85
72202;SHT30;60105;54.956;73.412;2023-08-31T11:59:50;19.91;52.13
72202;SHT30;60105;54.956;73.412;2023-08-31T12:03:01;19.78;54.03
72202;SHT30;60105;54.956;73.412;2023-08-31T12:06:04;19.64;54.75
72202;SHT30;60105;54.956;73.412;2023-08-31T12:09:08;19.60;53.97
72202;SHT30;60105;54.956;73.412;2023-08-31T12:12:23;19.75;53.65
72202;SHT30;60105;54.956;73.412;2023-08-31T12:15:30;19.79;54.38
72202;SHT30;60105;54.956;73.412;2023-08-31T12:18:32;19.75;54.44
72202;SHT30;60105;54.956;73.412;2023-08-31T12:21:33;19.60;54.98
72202;SHT30;60105;54.956;73.412;2023-08-31T12:24:41;19.53;55.75
72202;SHT30;60105;54.956;73.412;2023-08-31T12:27:42;19.40;56.29
72202;SHT30;60105;54.956;73.412;2023-08-31T12:30:51;19.33;55.58
72202;SHT30;60105;54.956;73.412;2023-08-31T12:33:52;19.28;57.92
72202;SHT30;60105;54.956;73.412;2023-08-31T12:37:23;19.12;58.59
72202;SHT30;60105;54.956;73.412;2023-08-31T12:40:24;19.20;57.63
72202;SHT30;60105;54.956;73.412;2023-08-31T12:43:26;19.14;59.59
72202;SHT30;60105;54.956;73.412;2023-08-31T12:46:27;19.06;59.61
72202;SHT30;60105;54.956;73.412;2023-08-31T12:49:28;18.99;58.52
72202;SHT30;60105;54.956;73.412;2023-08-31T12:52:30;18.95;58.93
72202;SHT30;60105;54.956;73.412;2023-08-31T12:55:31;18.91;57.91
72202;SHT30;60105;54.956;73.412;2023-08-31T12:58:32;18.86;58.07
72202;SHT30;60105;54.956;73.412;2023-08-31T13:01:34;18.77;59.08
72202;SHT30;60105;54.956;73.412;2023-08-31T13:04:36;18.68;59.94
72202;SHT30;60105;54.956;73.412;2023-08-31T13:07:38;18.62;59.30
72202;SHT30;60105;54.956;73.412;2023-08-31T13:10:39;18.54;59.33
72202;SHT30;60105;54.956;73.412;2023-08-31T13:13:40;18.49;58.34
72202;SHT30;60105;54.956;73.412;2023-08-31T13:17:23;18.40;58.56
72202;SHT30;60105;54.956;73.412;2023-08-31T13:20:28;18.31;59.04
72202;SHT30;60105;54.956;73.412;2023-08-31T13:23:29;18.20;59.30
72202;SHT30;60105;54.956;73.412;2023-08-31T13:26:33;18.14;59.74
72202;SHT30;60105;54.956;73.412;2023-08-31T13:29:46;18.01;58.66
72202;SHT30;60105;54.956;73.412;2023-08-31T13:32:47;17.93;59.20
72202;SHT30;60105;54.956;73.412;2023-08-31T13:35:49;17.79;59.71
72202;SHT30;60105;54.956;73.412;2023-08-31T13:38:50;17.63;56.73
72202;SHT30;60105;54.956;73.412;2023-08-31T13:42:23;17.48;57.55
72202;SHT30;60105;54.956;73.412;2023-08-31T13:45:26;17.34;57.72
72202;SHT30;60105;54.956;73.412;2023-08-31T13:48:27;17.29;57.08
72202;SHT30;60105;54.956;73.412;2023-08-31T13:51:29;17.21;57.74
72202;SHT30;60105;54.956;73.412;2023-08-31T13:54:30;17.10;57.17
72202;SHT30;60105;54.956;73.412;2023-08-31T13:57:32;16.95;56.05
72202;SHT30;60105;54.956;73.412;2023-08-31T14:00:36;16.85;57.92
72202;SHT30;60105;54.956;73.412;2023-08-31T14:03:38;16.84;56.37
72202;SHT30;60105;54.956;73.412;2023-08-31T14:07:23;16.88;56.48
72202;SHT30;60105;54.956;73.412;2023-08-31T14:10:25;16.95;56.31
72202;SHT30;60105;54.956;73.412;2023-08-31T14:13:26;16.95;56.78
72202;SHT30;60105;54.956;73.412;2023-08-31T14:16:27;16.95;55.52
72202;SHT30;60105;54.956;73.412;2023-08-31T14:19:29;16.95;55.52
72202;SHT30;60105;54.956;73.412;2023-08-31T14:22:30;16.91;56.39
72202;SHT30;60105;54.956;73.412;2023-08-31T14:25:38;16.84;57.31
72202;SHT30;60105;54.956;73.412;2023-08-31T14:28:39;16.81;57.25
72202;SHT30;60105;54.956;73.412;2023-08-31T14:31:52;16.84;56.81
72202;SHT30;60105;54.956;73.412;2023-08-31T14:34:55;16.80;56.92
72202;SHT30;60105;54.956;73.412;2023-08-31T14:37:57;16.77;57.81
72202;SHT30;60105;54.956;73.412;2023-08-31T14:41:00;16.70;57.40
72202;SHT30;60105;54.956;73.412;2023-08-31T14:44:01;16.61;58.31
72202;SHT30;60105;54.956;73.412;2023-08-31T14:47:23;16.56;59.42
72202;SHT30;60105;54.956;73.412;2023-08-31T14:50:24;16.53;58.29
72202;SHT30;60105;54.956;73.412;2023-08-31T14:53:26;16.40;58.79
72202;SHT30;60105;54.956;73.412;2023-08-31T14:56:28;16.40;59.64
72202;SHT30;60105;54.956;73.412;2023-08-31T14:59:30;16.30;59.76
72202;SHT30;60105;54.956;73.412;2023-08-31T15:02:31;16.18;59.98
72202;SHT30;60105;54.956;73.412;2023-08-31T15:05:32;16.09;59.30
72202;SHT30;60105;54.956;73.412;2023-08-31T15:08:39;15.98;59.98
72202;SHT30;60105;54.956;73.412;2023-08-31T15:12:23;15.87;61.73
72202;SHT30;60105;54.956;73.412;2023-08-31T15:15:29;15.82;60.79
72202;SHT30;60105;54.956;73.412;2023-08-31T15:18:37;15.74;61.92
72202;SHT30;60105;54.956;73.412;2023-08-31T15:22:23;15.68;61.53
72202;SHT30;60105;54.956;73.412;2023-08-31T15:25:25;15.64;62.42
72202;SHT30;60105;54.956;73.412;2023-08-31T15:28:27;15.51;62.48
72202;SHT30;60105;54.956;73.412;2023-08-31T15:31:28;15.40;64.04
72202;SHT30;60105;54.956;73.412;2023-08-31T15:34:30;15.30;64.15
72202;SHT30;60105;54.956;73.412;2023-08-31T15:37:32;15.27;62.90
72202;SHT30;60105;54.956;73.412;2023-08-31T15:40:33;15.23;62.12
72202;SHT30;60105;54.956;73.412;2023-08-31T15:43:36;15.19;63.04
72202;SHT30;60105;54.956;73.412;2023-08-31T15:47:23;15.12;62.44
72202;SHT30;60105;54.956;73.412;2023-08-31T15:50:25;15.10;61.64
72202;SHT30;60105;54.956;73.412;2023-08-31T15:53:26;15.09;63.42
72202;SHT30;60105;54.956;73.412;2023-08-31T15:56:30;15.04;62.96
72202;SHT30;60105;54.956;73.412;2023-08-31T15:59:32;15.02;61.77
72202;SHT30;60105;54.956;73.412;2023-08-31T16:02:33;14.96;62.87
72202;SHT30;60105;54.956;73.412;2023-08-31T16:05:35;14.86;62.72
72202;SHT30;60105;54.956;73.412;2023-08-31T16:08:37;14.86;62.77
72202;SHT30;60105;54.956;73.412;2023-08-31T16:12:23;14.83;62.49
72202;SHT30;60105;54.956;73.412;2023-08-31T16:15:26;14.83;62.37
72202;SHT30;60105;54.956;73.412;2023-08-31T16:18:29;14.79;62.68
72202;SHT30;60105;54.956;73.412;2023-08-31T16:21:31;14.81;63.69
72202;SHT30;60105;54.956;73.412;2023-08-31T16:24:32;14.78;62.74
72202;SHT30;60105;54.956;73.412;2023-08-31T16:27:33;14.81;62.84
72202;SHT30;60105;54.956;73.412;2023-08-31T16:30:35;14.75;63.02
72202;SHT30;60105;54.956;73.412;2023-08-31T16:33:36;14.72;62.97
72202;SHT30;60105;54.956;73.412;2023-08-31T16:36:38;14.69;62.49
72202;SHT30;60105;54.956;73.412;2023-08-31T16:39:39;14.69;62.97
72202;SHT30;60105;54.956;73.412;2023-08-31T16:42:41;14.68;63.25
72202;SHT30;60105;54.956;73.412;2023-08-31T16:45:46;14.64;62.94
72202;SHT30;60105;54.956;73.412;2023-08-31T16:48:58;14.62;62.75
72202;SHT30;60105;54.956;73.412;2023-08-31T16:52:23;14.55;63.01
72202;SHT30;60105;54.956;73.412;2023-08-31T16:55:27;14.54;64.17
72202;SHT30;60105;54.956;73.412;2023-08-31T16:58:35;14.51;64.28
72202;SHT30;60105;54.956;73.412;2023-08-31T17:01:37;14.45;64.13
72202;SHT30;60105;54.956;73.412;2023-08-31T17:04:38;14.46;65.16
72202;SHT30;60105;54.956;73.412;2023-08-31T17:07:43;14.37;63.95
72202;SHT30;60105;54.956;73.412;2023-08-31T17:10:45;14.37;63.65
72202;SHT30;60105;54.956;73.412;2023-08-31T17:13:46;14.34;64.42
72202;SHT30;60105;54.956;73.412;2023-08-31T17:17:23;14.33;63.97
72202;SHT30;60105;54.956;73.412;2023-08-31T17:20:26;14.31;63.78
72202;SHT30;60105;54.956;73.412;2023-08-31T17:23:28;14.28;64.20
72202;SHT30;60105;54.956;73.412;2023-08-31T17:26:32;14.21;64.14
72202;SHT30;60105;54.956;73.412;2023-08-31T17:29:33;14.20;65.20
72202;SHT30;60105;54.956;73.412;2023-08-31T17:32:36;14.13;64.50
72202;SHT30;60105;54.956;73.412;2023-08-31T17:35:37;14.10;65.14
72202;SHT30;60105;54.956;73.412;2023-08-31T17:38:42;14.10;66.10
72202;SHT30;60105;54.956;73.412;2023-08-31T17:42:23;14.02;66.27
72202;SHT30;60105;54.956;73.412;2023-08-31T17:45:25;14.00;65.90
72202;SHT30;60105;54.956;73.412;2023-08-31T17:48:27;13.91;66.20
72202;SHT30;60105;54.956;73.412;2023-08-31T17:51:28;13.85;65.64
72202;SHT30;60105;54.956;73.412;2023-08-31T17:54:30;13.79;65.78
72202;SHT30;60105;54.956;73.412;2023-08-31T17:57:33;13.75;65.92
72202;SHT30;60105;54.956;73.412;2023-08-31T18:00:34;13.70;66.85
72202;SHT30;60105;54.956;73.412;2023-08-31T18:03:35;13.63;66.85
72202;SHT30;60105;54.956;73.412;2023-08-31T18:06:36;13.62;66.30
72202;SHT30;60105;54.956;73.412;2023-08-31T18:09:38;13.61;66.17
72202;SHT30;60105;54.956;73.412;2023-08-31T18:12:39;13.56;65.82
72202;SHT30;60105;54.956;73.412;2023-08-31T18:15:50;13.54;67.16
72202;SHT30;60105;54.956;73.412;2023-08-31T18:18:52;13.45;67.81
72202;SHT30;60105;54.956;73.412;2023-08-31T18:22:23;13.42;67.04
72202;SHT30;60105;54.956;73.412;2023-08-31T18:25:25;13.39;67.62
72202;SHT30;60105;54.956;73.412;2023-08-31T18:28:26;13.35;67.44
72202;SHT30;60105;54.956;73.412;2023-08-31T18:31:28;13.34;66.85
72202;SHT30;60105;54.956;73.412;2023-08-31T18:34:29;13.27;67.84
72202;SHT30;60105;54.956;73.412;2023-08-31T18:37:31;13.28;68.22
72202;SHT30;60105;54.956;73.412;2023-08-31T18:40:35;13.22;67.55
72202;SHT30;60105;54.956;73.412;2023-08-31T18:43:37;13.21;67.19
72202;SHT30;60105;54.956;73.412;2023-08-31T18:47:23;13.15;68.18
72202;SHT30;60105;54.956;73.412;2023-08-31T18:50:25;13.14;67.46
72202;SHT30;60105;54.956;73.412;2023-08-31T18:53:27;13.12;67.90
72202;SHT30;60105;54.956;73.412;2023-08-31T18:56:28;13.06;67.63
72202;SHT30;60105;54.956;73.412;2023-08-31T18:59:30;13.06;68.44
72202;SHT30;60105;54.956;73.412;2023-08-31T19:02:31;13.00;68.26
72202;SHT30;60105;54.956;73.412;2023-08-31T19:05:32;12.93;67.68
72202;SHT30;60105;54.956;73.412;2023-08-31T19:08:35;12.91;67.85
72202;SHT30;60105;54.956;73.412;2023-08-31T19:11:36;12.93;68.00
72202;SHT30;60105;54.956;73.412;2023-08-31T19:14:39;12.93;68.08
72202;SHT30;60105;54.956;73.412;2023-08-31T19:17:41;12.88;68.19
72202;SHT30;60105;54.956;73.412;2023-08-31T19:20:43;12.83;69.01
72202;SHT30;60105;54.956;73.412;2023-08-31T19:23:44;12.76;69.25